sensor_id;sensor_type;location;lat;lon;timestamp;pressure;altitude;pressure_sealevel;temperature;humidity
28000;BME280;15328;50.860;10.562;2023-04-05T00:02:19;97156.16;;;0.34;52.87
28000;BME280;15328;50.860;10.562;2023-04-05T00:07:20;97154.09;;;0.28;53.22
28000;BME280;15328;50.860;10.562;2023-04-05T00:12:20;97149.25;;;0.14;53.26
28000;BME280;15328;50.860;10.562;2023-04-05T00:17:21;97141.94;;;0.08;53.71
28000;BME280;15328;50.860;10.562;2023-04-05T00:22:21;97141.75;;;-0.01;53.87
28000;BME280;15328;50.860;10.562;2023-04-05T00:27:25;97139.59;;;0.05;53.68
28000;BME280;15328;50.860;10.562;2023-04-05T00:32:25;97132.84;;;0.02;53.98
28000;BME280;15328;50.860;10.562;2023-04-05T00:37:25;97128.69;;;-0.01;53.66
28000;BME280;15328;50.860;10.562;2023-04-05T00:42:26;97136.94;;;-0.05;54.56
28000;BME280;15328;50.860;10.562;2023-04-05T00:47:26;97127.84;;;-0.01;53.86
28000;BME280;15328;50.860;10.562;2023-04-05T00:52:27;97134.88;;;-0.02;53.77
28000;BME280;15328;50.860;10.562;2023-04-05T00:57:28;97137.25;;;0.02;53.66
28000;BME280;15328;50.860;10.562;2023-04-05T01:02:33;97128.69;;;-0.10;53.99
28000;BME280;15328;50.860;10.562;2023-04-05T01:07:45;97118.75;;;-0.16;54.03
28000;BME280;15328;50.860;10.562;2023-04-05T01:12:49;97117.91;;;-0.26;54.10
28000;BME280;15328;50.860;10.562;2023-04-05T01:17:51;97109.94;;;-0.25;54.52
28000;BME280;15328;50.860;10.562;2023-04-05T01:33:25;97115.94;;;-0.34;54.98
28000;BME280;15328;50.860;10.562;2023-04-05T01:38:29;97114.31;;;-0.35;54.13
28000;BME280;15328;50.860;10.562;2023-04-05T01:43:31;97108.72;;;-0.21;54.05
28000;BME280;15328;50.860;10.562;2023-04-05T01:48:31;97099.97;;;-0.41;54.83
28000;BME280;15328;50.860;10.562;2023-04-05T01:53:32;97097.91;;;-0.37;55.26
28000;BME280;15328;50.860;10.562;2023-04-05T01:58:32;97087.75;;;-0.31;54.42
28000;BME280;15328;50.860;10.562;2023-04-05T02:03:33;97091.88;;;-0.38;55.02
28000;BME280;15328;50.860;10.562;2023-04-05T02:08:33;97090.06;;;-0.37;54.35
28000;BME280;15328;50.860;10.562;2023-04-05T02:13:33;97089.38;;;-0.39;55.10
28000;BME280;15328;50.860;10.562;2023-04-05T02:18:35;97078.78;;;-0.47;54.91
28000;BME280;15328;50.860;10.562;2023-04-05T02:23:37;97073.69;;;-0.49;56.26
28000;BME280;15328;50.860;10.562;2023-04-05T02:28:38;97077.13;;;-0.48;54.65
28000;BME280;15328;50.860;10.562;2023-04-05T02:33:39;97075.59;;;-0.51;55.33
28000;BME280;15328;50.860;10.562;2023-04-05T02:38:39;97078.66;;;-0.46;55.54
28000;BME280;15328;50.860;10.562;2023-04-05T02:43:40;97066.66;;;-0.48;55.24
28000;BME280;15328;50.860;10.562;2023-04-05T02:48:40;97074.81;;;-0.42;55.47
28000;BME280;15328;50.860;10.562;2023-04-05T02:53:41;97073.41;;;-0.46;54.90
28000;BME280;15328;50.860;10.562;2023-04-05T02:58:41;97074.13;;;-0.34;55.10
28000;BME280;15328;50.860;10.562;2023-04-05T03:03:42;97073.69;;;-0.39;54.49
28000;BME280;15328;50.860;10.562;2023-04-05T03:08:43;97082.34;;;-0.48;55.11
28000;BME280;15328;50.860;10.562;2023-04-05T03:13:43;97083.44;;;-0.51;55.36
28000;BME280;15328;50.860;10.562;2023-04-05T03:18:43;97087.72;;;-0.50;55.04
28000;BME280;15328;50.860;10.562;2023-04-05T03:23:44;97075.22;;;-0.46;55.68
28000;BME280;15328;50.860;10.562;2023-04-05T03:28:47;97078.38;;;-0.43;54.86
28000;BME280;15328;50.860;10.562;2023-04-05T03:33:48;97080.59;;;-0.38;55.22
28000;BME280;15328;50.860;10.562;2023-04-05T03:38:48;97079.63;;;-0.37;55.15
28000;BME280;15328;50.860;10.562;2023-04-05T03:43:50;97073.97;;;-0.42;55.35
28000;BME280;15328;50.860;10.562;2023-04-05T03:48:51;97064.75;;;-0.46;54.25
28000;BME280;15328;50.860;10.562;2023-04-05T03:53:51;97072.72;;;-0.48;54.89
28000;BME280;15328;50.860;10.562;2023-04-05T03:58:52;97058.69;;;-0.47;54.79
28000;BME280;15328;50.860;10.562;2023-04-05T04:03:52;97062.91;;;-0.55;54.49
28000;BME280;15328;50.860;10.562;2023-04-05T04:08:53;97066.34;;;-0.65;55.40
28000;BME280;15328;50.860;10.562;2023-04-05T04:13:53;97066.75;;;-0.69;54.96
28000;BME280;15328;50.860;10.562;2023-04-05T04:18:53;97061.34;;;-0.77;55.32
28000;BME280;15328;50.860;10.562;2023-04-05T04:23:54;97065.34;;;-0.73;55.42
28000;BME280;15328;50.860;10.562;2023-04-05T04:28:55;97066.19;;;-0.73;55.45
28000;BME280;15328;50.860;10.562;2023-04-05T04:33:55;97061.66;;;-0.71;55.05
28000;BME280;15328;50.860;10.562;2023-04-05T04:38:56;97063.22;;;-0.89;55.84
28000;BME280;15328;50.860;10.562;2023-04-05T04:43:56;97058.66;;;-0.97;55.95
28000;BME280;15328;50.860;10.562;2023-04-05T04:48:57;97059.00;;;-1.11;56.51
28000;BME280;15328;50.860;10.562;2023-04-05T04:53:58;97060.03;;;-0.93;55.80
28000;BME280;15328;50.860;10.562;2023-04-05T04:58:58;97063.22;;;-0.89;55.70
28000;BME280;15328;50.860;10.562;2023-04-05T05:03:58;97055.13;;;-0.86;55.57
28000;BME280;15328;50.860;10.562;2023-04-05T05:08:59;97049.88;;;-0.86;55.55
28000;BME280;15328;50.860;10.562;2023-04-05T05:14:00;97044.94;;;-0.89;56.73
28000;BME280;15328;50.860;10.562;2023-04-05T05:19:00;97047.75;;;-0.81;56.54
28000;BME280;15328;50.860;10.562;2023-04-05T05:24:01;97043.63;;;-0.74;56.06
28000;BME280;15328;50.860;10.562;2023-04-05T05:29:01;97044.59;;;-0.75;56.13
28000;BME280;15328;50.860;10.562;2023-04-05T05:34:02;97035.25;;;-0.58;56.33
28000;BME280;15328;50.860;10.562;2023-04-05T05:39:02;97040.75;;;-0.61;56.18
28000;BME280;15328;50.860;10.562;2023-04-05T05:44:05;97045.50;;;-0.45;56.35
28000;BME280;15328;50.860;10.562;2023-04-05T05:49:05;97040.03;;;-0.23;55.56
28000;BME280;15328;50.860;10.562;2023-04-05T05:54:06;97055.44;;;-0.20;55.01
28000;BME280;15328;50.860;10.562;2023-04-05T05:59:06;97056.28;;;0.00;54.62
28000;BME280;15328;50.860;10.562;2023-04-05T06:04:08;97053.53;;;0.11;54.32
28000;BME280;15328;50.860;10.562;2023-04-05T06:09:09;97049.53;;;0.17;54.40
28000;BME280;15328;50.860;10.562;2023-04-05T06:14:09;97058.75;;;0.40;53.97
28000;BME280;15328;50.860;10.562;2023-04-05T06:19:10;97054.84;;;0.64;53.37
28000;BME280;15328;50.860;10.562;2023-04-05T06:24:10;97062.69;;;0.73;53.64
28000;BME280;15328;50.860;10.562;2023-04-05T06:29:10;97062.50;;;0.94;52.83
28000;BME280;15328;50.860;10.562;2023-04-05T06:34:11;97064.53;;;1.10;53.33
28000;BME280;15328;50.860;10.562;2023-04-05T06:39:11;97056.88;;;1.26;52.32
28000;BME280;15328;50.860;10.562;2023-04-05T06:44:12;97054.00;;;1.47;52.79
28000;BME280;15328;50.860;10.562;2023-04-05T06:49:12;97050.16;;;1.69;52.21
28000;BME280;15328;50.860;10.562;2023-04-05T06:54:13;97049.59;;;1.93;51.92
28000;BME280;15328;50.860;10.562;2023-04-05T06:59:13;97060.03;;;2.20;50.46
28000;BME280;15328;50.860;10.562;2023-04-05T07:04:14;97065.72;;;2.51;50.25
28000;BME280;15328;50.860;10.562;2023-04-05T07:09:14;97058.59;;;2.69;48.51
28000;BME280;15328;50.860;10.562;2023-04-05T07:14:15;97059.13;;;2.99;48.80
28000;BME280;15328;50.860;10.562;2023-04-05T07:19:15;97060.91;;;3.24;47.38
28000;BME280;15328;50.860;10.562;2023-04-05T07:24:15;97044.72;;;3.45;46.43
28000;BME280;15328;50.860;10.562;2023-04-05T07:29:16;97048.06;;;3.55;44.42
28000;BME280;15328;50.860;10.562;2023-04-05T07:34:16;97053.06;;;3.75;44.16
28000;BME280;15328;50.860;10.562;2023-04-05T07:39:17;97049.66;;;3.98;43.15
28000;BME280;15328;50.860;10.562;2023-04-05T07:44:17;97049.72;;;4.15;42.55
28000;BME280;15328;50.860;10.562;2023-04-05T07:49:17;97047.41;;;4.36;42.23
28000;BME280;15328;50.860;10.562;2023-04-05T07:54:23;97053.66;;;4.59;42.01
28000;BME280;15328;50.860;10.562;2023-04-05T07:59:23;97050.88;;;4.77;41.31
28000;BME280;15328;50.860;10.562;2023-04-05T08:04:24;97056.94;;;5.02;41.41
28000;BME280;15328;50.860;10.562;2023-04-05T08:09:25;97055.06;;;5.19;40.10
28000;BME280;15328;50.860;10.562;2023-04-05T08:14:25;97055.41;;;5.24;40.06
28000;BME280;15328;50.860;10.562;2023-04-05T08:19:26;97048.00;;;5.58;39.89
28000;BME280;15328;50.860;10.562;2023-04-05T08:24:26;97047.97;;;5.67;38.39
28000;BME280;15328;50.860;10.562;2023-04-05T08:29:26;97047.78;;;5.68;38.17
28000;BME280;15328;50.860;10.562;2023-04-05T08:34:27;97045.16;;;5.68;37.89
28000;BME280;15328;50.860;10.562;2023-04-05T08:39:27;97047.66;;;5.62;37.38
28000;BME280;15328;50.860;10.562;2023-04-05T08:44:29;97045.13;;;5.76;38.17
28000;BME280;15328;50.860;10.562;2023-04-05T08:49:30;97041.59;;;5.92;37.56
28000;BME280;15328;50.860;10.562;2023-04-05T08:54:30;97045.81;;;5.70;36.77
28000;BME280;15328;50.860;10.562;2023-04-05T08:59:32;97049.97;;;5.65;37.53
28000;BME280;15328;50.860;10.562;2023-04-05T09:04:36;97048.31;;;5.64;37.58
28000;BME280;15328;50.860;10.562;2023-04-05T09:09:47;97045.81;;;5.70;37.47
28000;BME280;15328;50.860;10.562;2023-04-05T09:14:49;97047.91;;;5.75;37.00
28000;BME280;15328;50.860;10.562;2023-04-05T09:19:50;97050.69;;;5.89;38.18
28000;BME280;15328;50.860;10.562;2023-04-05T09:24:50;97045.94;;;6.39;37.52
28000;BME280;15328;50.860;10.562;2023-04-05T09:29:50;97042.84;;;6.73;36.95
28000;BME280;15328;50.860;10.562;2023-04-05T09:34:52;97043.47;;;6.75;34.75
28000;BME280;15328;50.860;10.562;2023-04-05T09:40:01;97037.59;;;6.88;35.16
28000;BME280;15328;50.860;10.562;2023-04-05T09:45:03;97027.94;;;8.04;34.55
28000;BME280;15328;50.860;10.562;2023-04-05T09:55:25;97018.84;;;10.36;30.71
28000;BME280;15328;50.860;10.562;2023-04-05T10:00:28;97027.13;;;11.85;29.13
28000;BME280;15328;50.860;10.562;2023-04-05T10:05:29;97024.28;;;12.81;27.08
28000;BME280;15328;50.860;10.562;2023-04-05T10:10:36;97034.28;;;13.60;25.20
28000;BME280;15328;50.860;10.562;2023-04-05T10:15:46;97026.28;;;12.92;25.66
28000;BME280;15328;50.860;10.562;2023-04-05T10:20:49;97011.91;;;12.86;26.23
28000;BME280;15328;50.860;10.562;2023-04-05T10:30:55;97025.75;;;13.51;24.76
28000;BME280;15328;50.860;10.562;2023-04-05T10:37:10;97018.94;;;13.74;24.87
28000;BME280;15328;50.860;10.562;2023-04-05T10:41:52;97012.63;;;14.16;24.02
28000;BME280;15328;50.860;10.562;2023-04-05T10:46:54;97002.88;;;14.22;22.46
28000;BME280;15328;50.860;10.562;2023-04-05T10:51:56;97004.34;;;13.88;23.66
28000;BME280;15328;50.860;10.562;2023-04-05T10:56:56;97007.03;;;14.18;23.01
28000;BME280;15328;50.860;10.562;2023-04-05T11:01:58;96998.03;;;14.61;23.42
28000;BME280;15328;50.860;10.562;2023-04-05T11:07:16;96998.91;;;14.96;23.21
28000;BME280;15328;50.860;10.562;2023-04-05T11:12:16;96988.97;;;14.32;23.11
28000;BME280;15328;50.860;10.562;2023-04-05T11:17:27;96987.13;;;14.86;23.85
28000;BME280;15328;50.860;10.562;2023-04-05T11:22:29;96980.97;;;15.08;22.35
28000;BME280;15328;50.860;10.562;2023-04-05T11:27:31;96973.75;;;15.21;23.00
28000;BME280;15328;50.860;10.562;2023-04-05T11:32:44;96970.56;;;15.70;22.49
28000;BME280;15328;50.860;10.562;2023-04-05T11:43:08;96956.94;;;14.25;21.92
28000;BME280;15328;50.860;10.562;2023-04-05T11:48:12;96954.63;;;13.50;22.97
28000;BME280;15328;50.860;10.562;2023-04-05T11:53:13;96960.94;;;14.04;23.60
28000;BME280;15328;50.860;10.562;2023-04-05T11:58:24;96950.16;;;14.22;22.84
28000;BME280;15328;50.860;10.562;2023-04-05T12:03:26;96950.09;;;13.33;23.63
28000;BME280;15328;50.860;10.562;2023-04-05T12:13:39;96944.94;;;12.69;25.18
28000;BME280;15328;50.860;10.562;2023-04-05T12:18:40;96939.09;;;12.79;24.28
28000;BME280;15328;50.860;10.562;2023-04-05T12:23:40;96937.28;;;12.73;25.01
28000;BME280;15328;50.860;10.562;2023-04-05T12:28:57;96927.50;;;12.67;25.00
28000;BME280;15328;50.860;10.562;2023-04-05T12:33:58;96925.94;;;13.03;25.05
28000;BME280;15328;50.860;10.562;2023-04-05T12:38:59;96923.97;;;13.35;25.12
28000;BME280;15328;50.860;10.562;2023-04-05T12:44:15;96918.91;;;12.83;24.93
28000;BME280;15328;50.860;10.562;2023-04-05T12:49:17;96906.03;;;12.98;24.71
28000;BME280;15328;50.860;10.562;2023-04-05T12:54:22;96896.88;;;12.69;24.85
28000;BME280;15328;50.860;10.562;2023-04-05T12:59:23;96898.78;;;13.06;26.06
28000;BME280;15328;50.860;10.562;2023-04-05T13:04:25;96881.75;;;13.73;24.75
28000;BME280;15328;50.860;10.562;2023-04-05T13:09:25;96884.66;;;14.13;24.03
28000;BME280;15328;50.860;10.562;2023-04-05T13:14:25;96880.66;;;13.92;23.22
28000;BME280;15328;50.860;10.562;2023-04-05T13:19:26;96877.31;;;13.97;24.62
28000;BME280;15328;50.860;10.562;2023-04-05T13:24:26;96860.59;;;14.13;23.25
28000;BME280;15328;50.860;10.562;2023-04-05T13:29:26;96860.34;;;14.03;23.62
28000;BME280;15328;50.860;10.562;2023-04-05T13:34:27;96845.53;;;13.89;23.95
28000;BME280;15328;50.860;10.562;2023-04-05T13:39:27;96845.44;;;13.36;22.67
28000;BME280;15328;50.860;10.562;2023-04-05T13:44:28;96842.25;;;13.27;24.90
28000;BME280;15328;50.860;10.562;2023-04-05T13:49:28;96839.19;;;12.87;24.36
28000;BME280;15328;50.860;10.562;2023-04-05T13:54:28;96831.09;;;12.57;24.37
28000;BME280;15328;50.860;10.562;2023-04-05T13:59:29;96826.72;;;12.44;24.58
28000;BME280;15328;50.860;10.562;2023-04-05T14:04:29;96822.78;;;12.47;24.44
28000;BME280;15328;50.860;10.562;2023-04-05T14:09:30;96835.00;;;12.36;25.42
28000;BME280;15328;50.860;10.562;2023-04-05T14:14:31;96824.75;;;11.76;26.08
28000;BME280;15328;50.860;10.562;2023-04-05T14:19:32;96819.63;;;11.05;26.94
28000;BME280;15328;50.860;10.562;2023-04-05T14:24:32;96812.31;;;10.88;27.90
28000;BME280;15328;50.860;10.562;2023-04-05T14:29:33;96811.19;;;10.50;28.67
28000;BME280;15328;50.860;10.562;2023-04-05T14:34:33;96813.47;;;10.47;28.34
28000;BME280;15328;50.860;10.562;2023-04-05T14:39:35;96810.41;;;10.17;29.10
28000;BME280;15328;50.860;10.562;2023-04-05T14:44:35;96811.41;;;10.03;28.88
28000;BME280;15328;50.860;10.562;2023-04-05T14:49:36;96803.03;;;9.86;29.50
28000;BME280;15328;50.860;10.562;2023-04-05T14:54:36;96798.94;;;9.70;29.82
28000;BME280;15328;50.860;10.562;2023-04-05T14:59:37;96802.00;;;9.80;31.56
28000;BME280;15328;50.860;10.562;2023-04-05T15:04:37;96799.97;;;9.76;29.65
28000;BME280;15328;50.860;10.562;2023-04-05T15:09:40;96802.38;;;9.57;30.91
28000;BME280;15328;50.860;10.562;2023-04-05T15:14:42;96797.06;;;9.44;31.13
28000;BME280;15328;50.860;10.562;2023-04-05T15:19:44;96796.03;;;9.39;31.73
28000;BME280;15328;50.860;10.562;2023-04-05T15:24:45;96802.13;;;9.19;31.30
28000;BME280;15328;50.860;10.562;2023-04-05T15:29:45;96793.31;;;9.06;31.03
28000;BME280;15328;50.860;10.562;2023-04-05T15:34:46;96798.38;;;9.01;31.61
28000;BME280;15328;50.860;10.562;2023-04-05T15:39:46;96795.72;;;9.01;32.16
28000;BME280;15328;50.860;10.562;2023-04-05T15:44:48;96789.19;;;9.03;32.25
28000;BME280;15328;50.860;10.562;2023-04-05T15:49:48;96788.31;;;8.83;31.77
28000;BME280;15328;50.860;10.562;2023-04-05T15:54:51;96796.63;;;8.73;32.63
28000;BME280;15328;50.860;10.562;2023-04-05T15:59:52;96795.25;;;8.77;33.00
28000;BME280;15328;50.860;10.562;2023-04-05T16:04:53;96795.03;;;8.79;32.64
28000;BME280;15328;50.860;10.562;2023-04-05T16:09:54;96794.16;;;8.65;32.66
28000;BME280;15328;50.860;10.562;2023-04-05T16:14:54;96784.72;;;8.56;33.71
28000;BME280;15328;50.860;10.562;2023-04-05T16:19:55;96786.28;;;8.44;32.85
28000;BME280;15328;50.860;10.562;2023-04-05T16:24:55;96784.34;;;8.31;32.92
28000;BME280;15328;50.860;10.562;2023-04-05T16:29:56;96785.34;;;8.23;33.22
28000;BME280;15328;50.860;10.562;2023-04-05T16:34:56;96784.13;;;7.98;33.51
28000;BME280;15328;50.860;10.562;2023-04-05T16:39:57;96785.97;;;7.97;34.86
28000;BME280;15328;50.860;10.562;2023-04-05T16:44:57;96789.75;;;7.88;34.17
28000;BME280;15328;50.860;10.562;2023-04-05T16:49:58;96783.34;;;7.76;34.63
28000;BME280;15328;50.860;10.562;2023-04-05T16:54:58;96785.44;;;7.59;34.45
28000;BME280;15328;50.860;10.562;2023-04-05T16:59:59;96779.84;;;7.48;34.58
28000;BME280;15328;50.860;10.562;2023-04-05T17:04:59;96782.34;;;7.34;34.68
28000;BME280;15328;50.860;10.562;2023-04-05T17:10:00;96784.69;;;7.23;35.09
28000;BME280;15328;50.860;10.562;2023-04-05T17:15:02;96781.06;;;7.09;35.49
28000;BME280;15328;50.860;10.562;2023-04-05T17:20:03;96783.34;;;6.91;36.46
28000;BME280;15328;50.860;10.562;2023-04-05T17:25:04;96789.00;;;6.88;36.43
28000;BME280;15328;50.860;10.562;2023-04-05T17:30:05;96789.34;;;6.85;35.97
28000;BME280;15328;50.860;10.562;2023-04-05T17:35:06;96791.09;;;6.77;36.29
28000;BME280;15328;50.860;10.562;2023-04-05T17:40:07;96788.03;;;6.59;37.00
28000;BME280;15328;50.860;10.562;2023-04-05T17:45:08;96793.50;;;6.43;37.34
28000;BME280;15328;50.860;10.562;2023-04-05T17:50:09;96790.34;;;6.33;37.90
28000;BME280;15328;50.860;10.562;2023-04-05T17:55:09;96800.78;;;6.11;38.81
28000;BME280;15328;50.860;10.562;2023-04-05T18:00:10;96800.44;;;5.77;39.51
28000;BME280;15328;50.860;10.562;2023-04-05T18:05:11;96804.94;;;5.68;40.62
28000;BME280;15328;50.860;10.562;2023-04-05T18:10:12;96806.72;;;5.53;40.80
28000;BME280;15328;50.860;10.562;2023-04-05T18:15:12;96821.84;;;5.36;40.71
28000;BME280;15328;50.860;10.562;2023-04-05T18:20:13;96821.63;;;5.23;41.47
28000;BME280;15328;50.860;10.562;2023-04-05T18:25:13;96828.63;;;5.08;42.08
28000;BME280;15328;50.860;10.562;2023-04-05T18:30:14;96828.69;;;4.91;41.17
28000;BME280;15328;50.860;10.562;2023-04-05T18:35:15;96840.22;;;4.68;42.05
28000;BME280;15328;50.860;10.562;2023-04-05T18:40:15;96838.66;;;4.42;43.00
28000;BME280;15328;50.860;10.562;2023-04-05T18:45:17;96842.75;;;4.37;43.17
28000;BME280;15328;50.860;10.562;2023-04-05T18:50:17;96846.44;;;4.19;43.52
28000;BME280;15328;50.860;10.562;2023-04-05T18:55:19;96847.94;;;4.06;43.41
28000;BME280;15328;50.860;10.562;2023-04-05T19:00:20;96849.94;;;3.95;43.76
28000;BME280;15328;50.860;10.562;2023-04-05T19:05:20;96855.38;;;3.86;43.83
28000;BME280;15328;50.860;10.562;2023-04-05T19:10:21;96857.34;;;3.84;43.61
28000;BME280;15328;50.860;10.562;2023-04-05T19:15:21;96857.03;;;3.62;44.86
28000;BME280;15328;50.860;10.562;2023-04-05T19:20:22;96868.81;;;3.34;44.82
28000;BME280;15328;50.860;10.562;2023-04-05T19:25:22;96858.44;;;3.16;45.10
28000;BME280;15328;50.860;10.562;2023-04-05T19:30:23;96865.44;;;2.99;45.91
28000;BME280;15328;50.860;10.562;2023-04-05T19:35:23;96864.31;;;3.02;45.49
28000;BME280;15328;50.860;10.562;2023-04-05T19:40:24;96859.53;;;2.97;45.88
28000;BME280;15328;50.860;10.562;2023-04-05T19:45:29;96861.66;;;2.94;46.19
28000;BME280;15328;50.860;10.562;2023-04-05T19:55:36;96856.47;;;2.68;46.41
28000;BME280;15328;50.860;10.562;2023-04-05T20:00:46;96839.09;;;2.75;47.09
28000;BME280;15328;50.860;10.562;2023-04-05T20:06:04;96846.91;;;2.59;47.58
28000;BME280;15328;50.860;10.562;2023-04-05T20:11:09;96845.78;;;2.61;47.40
28000;BME280;15328;50.860;10.562;2023-04-05T20:16:11;96843.34;;;2.68;48.01
28000;BME280;15328;50.860;10.562;2023-04-05T20:21:13;96841.34;;;2.62;48.21
28000;BME280;15328;50.860;10.562;2023-04-05T20:26:15;96839.19;;;2.57;47.66
28000;BME280;15328;50.860;10.562;2023-04-05T20:31:24;96835.09;;;2.55;48.71
28000;BME280;15328;50.860;10.562;2023-04-05T20:36:33;96832.78;;;2.52;47.80
28000;BME280;15328;50.860;10.562;2023-04-05T20:41:35;96829.09;;;2.36;48.67
28000;BME280;15328;50.860;10.562;2023-04-05T20:46:35;96820.41;;;2.44;47.75
28000;BME280;15328;50.860;10.562;2023-04-05T20:51:36;96814.34;;;2.43;49.35
28000;BME280;15328;50.860;10.562;2023-04-05T20:56:37;96811.56;;;2.45;48.97
28000;BME280;15328;50.860;10.562;2023-04-05T21:01:37;96806.59;;;2.34;48.88
28000;BME280;15328;50.860;10.562;2023-04-05T21:06:38;96803.47;;;2.30;48.87
28000;BME280;15328;50.860;10.562;2023-04-05T21:11:38;96796.53;;;2.21;48.67
28000;BME280;15328;50.860;10.562;2023-04-05T21:16:39;96795.03;;;2.18;49.39
28000;BME280;15328;50.860;10.562;2023-04-05T21:21:40;96783.19;;;2.14;49.09
28000;BME280;15328;50.860;10.562;2023-04-05T21:26:40;96783.31;;;2.05;49.52
28000;BME280;15328;50.860;10.562;2023-04-05T21:31:41;96782.00;;;2.01;49.39
28000;BME280;15328;50.860;10.562;2023-04-05T21:36:41;96785.09;;;1.96;50.35
28000;BME280;15328;50.860;10.562;2023-04-05T21:41:41;96785.25;;;1.95;49.53
28000;BME280;15328;50.860;10.562;2023-04-05T21:46:42;96782.41;;;1.88;49.73
28000;BME280;15328;50.860;10.562;2023-04-05T21:51:42;96786.06;;;1.95;50.04
28000;BME280;15328;50.860;10.562;2023-04-05T21:56:43;96784.19;;;1.88;50.76
28000;BME280;15328;50.860;10.562;2023-04-05T22:01:45;96784.19;;;1.88;50.21
28000;BME280;15328;50.860;10.562;2023-04-05T22:06:45;96788.25;;;1.82;48.67
28000;BME280;15328;50.860;10.562;2023-04-05T22:11:47;96793.78;;;1.71;50.09
28000;BME280;15328;50.860;10.562;2023-04-05T22:16:47;96792.16;;;1.52;49.51
28000;BME280;15328;50.860;10.562;2023-04-05T22:21:48;96793.84;;;1.61;49.67
28000;BME280;15328;50.860;10.562;2023-04-05T22:26:48;96793.13;;;1.69;49.78
28000;BME280;15328;50.860;10.562;2023-04-05T22:31:51;96791.81;;;1.73;49.26
28000;BME280;15328;50.860;10.562;2023-04-05T22:36:51;96782.94;;;1.66;49.63
28000;BME280;15328;50.860;10.562;2023-04-05T22:41:52;96778.50;;;1.66;49.25
28000;BME280;15328;50.860;10.562;2023-04-05T22:46:52;96776.28;;;1.79;49.18
28000;BME280;15328;50.860;10.562;2023-04-05T22:51:53;96773.28;;;1.66;49.88
28000;BME280;15328;50.860;10.562;2023-04-05T22:56:53;96769.34;;;1.70;50.60
28000;BME280;15328;50.860;10.562;2023-04-05T23:01:54;96764.97;;;1.53;50.19
28000;BME280;15328;50.860;10.562;2023-04-05T23:06:54;96769.53;;;1.51;50.50
28000;BME280;15328;50.860;10.562;2023-04-05T23:11:54;96758.38;;;1.49;50.49
28000;BME280;15328;50.860;10.562;2023-04-05T23:16:55;96760.75;;;1.60;50.20
28000;BME280;15328;50.860;10.562;2023-04-05T23:21:56;96755.81;;;1.57;50.05
28000;BME280;15328;50.860;10.562;2023-04-05T23:26:57;96746.31;;;1.56;49.74
28000;BME280;15328;50.860;10.562;2023-04-05T23:31:57;96750.25;;;1.60;49.72
28000;BME280;15328;50.860;10.562;2023-04-05T23:36:58;96752.44;;;1.65;49.40
28000;BME280;15328;50.860;10.562;2023-04-05T23:41:58;96750.72;;;1.55;49.10
28000;BME280;15328;50.860;10.562;2023-04-05T23:46:59;96750.41;;;1.59;48.45
28000;BME280;15328;50.860;10.562;2023-04-05T23:51:59;96735.66;;;1.58;48.85
28000;BME280;15328;50.860;10.562;2023-04-05T23:57:00;96736.53;;;1.66;48.07
